ADDS METAR Data INFO
IDs: Format: Raw Decoded Include TAF

Data at: 1105 UTC 17 Jul 2018

KLEX 171054Z 30004KT 3SM BR CLR 23/22 A2998 RMK AO2 SLP141 T02280217
KLEX 170954Z 25004KT 8SM FEW050 SCT085 OVC110 23/22 A2997 RMK AO2 SLP138 T02330217
KLEX 170908Z 26004KT 4SM BR SCT023 BKN060 OVC100 23/22 A2997 RMK AO2 T02330222
KLEX 170854Z 28003KT 5SM BR BKN021 BKN028 24/22 A2996 RMK AO2 SLP134 T02390222 52001
KLEX 170754Z 22003KT 5SM BR FEW070 23/22 A2996 RMK AO2 SLP134 T02330217
KLEX 170654Z 24006KT 7SM FEW055 BKN100 24/22 A2996 RMK AO2 SLP134 T02390222
KLEX 170554Z 21005KT 7SM CLR 23/22 A2997 RMK AO2 SLP136 60000 T02330217 10278 20233 57001
KLEX 170454Z AUTO 22005KT 7SM CLR 23/22 A2997 RMK AO2 SLP136 T02330217 403000217
KLEX 170354Z AUTO 23004KT 9SM CLR 24/22 A2997 RMK AO2 RAB05E14 SLP137 P0000 T02390217
KLEX 170254Z AUTO 22004KT 10SM CLR 24/22 A2997 RMK AO2 RAE26 SLP137 P0000 60000 T02390217 50012
KLEX 170154Z 24004KT 10SM -RA CLR 24/22 A2997 RMK AO2 RAB51 SLP139 P0000 T02440222
KLEX 170054Z 25003KT 10SM CLR 26/22 A2996 RMK AO2 SLP133 T02610222
KLEX 162354Z 29005KT 10SM CLR 28/23 A2993 RMK AO2 SLP125 60054 T02780228 10283 20244 55005
KLEX 162254Z 27006KT 10SM FEW044 28/22 A2993 RMK AO2 SLP124 T02780222
KLEX 162154Z 26009KT 10SM FEW019 BKN036 OVC055 27/23 A2994 RMK AO2 SLP130 T02720228
KLEX 162110Z 29009G17KT 10SM SCT020 SCT031 OVC055 27/22 A2995 RMK AO2 T02720222
KLEX 162054Z 28008KT 10SM BKN018 BKN025 OVC040 27/23 A2995 RMK AO2 RAB14E41 SLP132 P0000 60054 T02720233 56008
KLEX 161954Z 26004KT 10SM BKN019 BKN027 OVC037 26/24 A2996 RMK AO2 LTG DSNT NE AND SE RAB1857E10 SLP134 P0007 T02610239
KLEX 161951Z 28007KT 10SM SCT019 BKN027 OVC037 26/24 A2996 RMK AO2 LTG DSNT NE AND SE RAB1857E10 P0007
KLEX 161923Z 23005KT 10SM FEW019 SCT031 BKN040 26/23 A2997 RMK AO2 RAB1857E10 P0007 T02560233
KLEX 161914Z 22007KT 10SM R04/5000VP6000FT VCTS SCT019 SCT031 BKN040 25/23 A2997 RMK AO2 LTG DSNT SE RAB1857E10 P0007 T02500233
KLEX 161905Z 21007KT 2SM R04/3000VP6000FT VCTS -RA BR FEW017 BKN033 OVC042 24/23 A2997 RMK AO2 LTG DSNT ALQDS RAB1857 P0007 T02440228
KLEX 161854Z 21006KT 10SM VCTS FEW021 BKN039 OVC050 24/23 A2997 RMK AO2 LTG DSNT N-SE RAB06E46 TSB27E42 SLP141 P0047 T02440228
KLEX 161849Z 20006KT 10SM VCTS FEW021 BKN036 OVC046 24/23 A2997 RMK AO2 LTG DSNT ALQDS RAB06E46 TSB27E42 P0047
KLEX 161842Z 19006KT 3SM R04/3500VP6000FT VCTS -RA BR FEW011 BKN025 OVC049 24/23 A2998 RMK AO2 LTG DSNT N AND NE AND S RAB06 TSB27E42 P0047 T02440228
KLEX 161829Z 22012KT 1 3/4SM R04/2400VP6000FT TSRA BR FEW013 BKN023 OVC050 24/22 A2998 RMK AO2 LTG DSNT N AND NE AND S RAB06 TSB27 P0025 T02440222
KLEX 161827Z 21013KT 2 1/2SM R04/4500VP6000FT -TSRA BR FEW013 BKN031 OVC049 24/23 A2998 RMK AO2 LTG DSNT N AND NE AND S RAB06 TSB27 P0025 T02440228
KLEX 161817Z 21010G18KT 1SM R04/3500V5000FT VCTS +RA BR FEW014 BKN024 OVC065 25/23 A2998 RMK AO2 LTG DSNT N AND S AND SW RAB06 P0019 T02500233
KLEX 161809Z 20010KT 1 3/4SM R04/3500VP6000FT VCTS +RA FEW020 BKN036 OVC075 26/23 A2997 RMK AO2 LTG DSNT N AND SW RAB06 P0004 T02610233
KLEX 161750Z 20014G22KT 10SM VCTS SCT025 SCT034 BKN075 28/22 A2997 RMK AO2 LTG DSNT N AND NW SLP139 60000 T02780222 10300 20233 58015
KLEX 161749Z 19013G22KT 10SM VCTS SCT023 SCT034 BKN075 28/22 A2997 RMK AO2 LTG DSNT N AND NW
KLEX 161713Z 18014G20KT 10SM BKN021 BKN031 BKN039 28/22 A2999 RMK AO2 T02830222
KLEX 161654Z 17013KT 10SM FEW019 BKN033 OVC055 28/23 A3000 RMK AO2 SLP147 T02830228
KLEX 161643Z 17009KT 10SM FEW018 BKN035 OVC065 29/23 A3000 RMK AO2 T02890233
KLEX 161554Z 18010KT 10SM FEW021 BKN026 OVC085 27/22 A3002 RMK AO2 SLP155 T02720222
KLEX 161533Z 19008KT 10SM BKN025 BKN060 28/23 A3002 RMK AO2 T02780228
KLEX 161454Z 18006KT 10SM FEW120 27/23 A3002 RMK AO2 RAE02 SLP155 P0000 60000 T02720228 50001
KLEX 161354Z 18004KT 9SM -RA BKN070 OVC085 26/22 A3003 RMK AO2 RAB52 SLP158 P0000 T02560222
KLEX 161254Z 19005KT 9SM BKN065 25/23 A3002 RMK AO2 SLP155 T02500228
KLEX 161154Z 15003KT 6SM BR SCT055 SCT100 23/22 A3002 RMK AO2 SLP154 70024 T02330222 10233 20217 53000
KLEX 161054Z 00000KT 4SM BR FEW050 22/21 A3002 RMK AO2 SLP154 T02220206
KLEX 160954Z 00000KT 7SM CLR 22/21 A3001 RMK AO2 SLP151 T02220206
KLEX 160854Z 18004KT 7SM FEW065 22/21 A3001 RMK AO2 SLP153 T02220211 56011
KLEX 160754Z 00000KT 6SM BR BKN065 BKN090 23/21 A3002 RMK AO2 SLP156 T02280211
KLEX 160654Z 16003KT 9SM FEW015 FEW070 23/21 A3002 RMK AO2 SLP156 T02280211
KLEX 160554Z 15004KT 10SM OVC070 23/21 A3005 RMK AO2 RAE28 SLP163 P0008 60013 T02330211 10256 20222 50005
KLEX 160509Z 12006KT 7SM -RA SCT043 BKN080 OVC095 23/21 A3005 RMK AO2 P0007 T02330211
KLEX 160501Z 12005KT 2 1/2SM +RA BR BKN043 BKN065 OVC090 23/21 A3005 RMK AO2 P0007 T02280211
KLEX 160454Z 14004KT 3SM +RA BR SCT045 OVC090 23/21 A3006 RMK AO2 RAB43 SLP167 P0004 T02280211 402890206
KLEX 160354Z 14005KT 10SM OVC090 23/21 A3004 RMK AO2 SLP163 T02330211
KLEX 160254Z 14005KT 10SM OVC095 23/21 A3003 RMK AO2 SLP160 60001 T02280211 53004
KLEX 160154Z 00000KT 8SM SCT110 23/21 A3001 RMK AO2 RAE01 SLP151 P0000 T02280211
KLEX 160054Z 30004KT 10SM -RA FEW070 BKN090 OVC110 23/20 A3001 RMK AO2 RAB17 SLP151 P0001 T02280200
KLEX 160020Z 15008KT 5SM -RA FEW024 BKN031 OVC070 24/20 A3002 RMK AO2 RAB17 P0001 T02390200
KLEX 160007Z 19011KT 10SM FEW020 BKN027 OVC032 25/19 A3002 RMK AO2 T02500194
KLEX 152354Z 16008KT 10SM VCTS FEW020 BKN027 OVC036 26/19 A3002 RMK AO2 LTG DSNT S SLP156 60011 T02560189 10289 20239 56002
KLEX 152341Z 17008KT 10SM VCTS FEW020 SCT029 BKN034 27/21 A3002 RMK AO2 LTG DSNT S T02670211